sensor_id;sensor_type;location;lat;lon;timestamp;P1;durP1;ratioP1;P2;durP2;ratioP2
69334;SDS011;56477;52.742;15.242;2024-01-15T00:00:19;17.52;;;7.10;;
69334;SDS011;56477;52.742;15.242;2024-01-15T00:03:06;20.73;;;9.85;;
69334;SDS011;56477;52.742;15.242;2024-01-15T00:05:32;20.05;;;10.27;;
69334;SDS011;56477;52.742;15.242;2024-01-15T00:07:58;23.53;;;11.93;;
69334;SDS011;56477;52.742;15.242;2024-01-15T00:10:24;26.20;;;7.93;;
69334;SDS011;56477;52.742;15.242;2024-01-15T00:12:50;20.13;;;9.77;;
69334;SDS011;56477;52.742;15.242;2024-01-15T00:15:16;12.10;;;4.10;;
69334;SDS011;56477;52.742;15.242;2024-01-15T00:17:42;22.50;;;8.77;;
69334;SDS011;56477;52.742;15.242;2024-01-15T00:20:08;21.10;;;10.38;;
69334;SDS011;56477;52.742;15.242;2024-01-15T00:22:34;12.23;;;5.57;;
69334;SDS011;56477;52.742;15.242;2024-01-15T00:25:03;23.33;;;9.20;;
69334;SDS011;56477;52.742;15.242;2024-01-15T00:27:29;17.83;;;7.20;;
69334;SDS011;56477;52.742;15.242;2024-01-15T00:29:55;18.70;;;7.55;;
69334;SDS011;56477;52.742;15.242;2024-01-15T00:32:21;13.63;;;6.15;;
69334;SDS011;56477;52.742;15.242;2024-01-15T00:34:47;23.00;;;10.53;;
69334;SDS011;56477;52.742;15.242;2024-01-15T00:37:13;26.70;;;11.73;;
69334;SDS011;56477;52.742;15.242;2024-01-15T00:39:39;23.95;;;11.98;;
69334;SDS011;56477;52.742;15.242;2024-01-15T00:42:05;18.42;;;6.97;;
69334;SDS011;56477;52.742;15.242;2024-01-15T00:44:31;22.25;;;8.90;;
69334;SDS011;56477;52.742;15.242;2024-01-15T00:46:58;13.87;;;5.27;;
69334;SDS011;56477;52.742;15.242;2024-01-15T00:49:24;21.13;;;9.07;;
69334;SDS011;56477;52.742;15.242;2024-01-15T00:51:50;18.27;;;6.43;;
69334;SDS011;56477;52.742;15.242;2024-01-15T00:54:16;19.95;;;7.07;;
69334;SDS011;56477;52.742;15.242;2024-01-15T00:56:43;24.17;;;10.17;;
69334;SDS011;56477;52.742;15.242;2024-01-15T00:59:08;20.50;;;9.73;;
69334;SDS011;56477;52.742;15.242;2024-01-15T01:01:36;24.25;;;11.25;;
69334;SDS011;56477;52.742;15.242;2024-01-15T01:04:03;14.07;;;5.70;;
69334;SDS011;56477;52.742;15.242;2024-01-15T01:06:29;24.10;;;11.70;;
69334;SDS011;56477;52.742;15.242;2024-01-15T01:08:55;19.75;;;8.10;;
69334;SDS011;56477;52.742;15.242;2024-01-15T01:11:21;20.08;;;8.02;;
69334;SDS011;56477;52.742;15.242;2024-01-15T01:13:47;18.97;;;7.20;;
69334;SDS011;56477;52.742;15.242;2024-01-15T01:16:14;21.00;;;7.63;;
69334;SDS011;56477;52.742;15.242;2024-01-15T01:18:39;15.00;;;5.43;;
69334;SDS011;56477;52.742;15.242;2024-01-15T01:21:06;26.52;;;12.68;;
69334;SDS011;56477;52.742;15.242;2024-01-15T01:23:31;20.30;;;10.27;;
69334;SDS011;56477;52.742;15.242;2024-01-15T01:25:58;30.10;;;15.90;;
69334;SDS011;56477;52.742;15.242;2024-01-15T01:28:23;26.33;;;11.60;;
69334;SDS011;56477;52.742;15.242;2024-01-15T01:30:50;22.73;;;10.77;;
69334;SDS011;56477;52.742;15.242;2024-01-15T01:33:16;15.83;;;5.90;;
69334;SDS011;56477;52.742;15.242;2024-01-15T01:35:42;19.30;;;8.20;;
69334;SDS011;56477;52.742;15.242;2024-01-15T01:38:08;28.15;;;13.68;;
69334;SDS011;56477;52.742;15.242;2024-01-15T01:40:35;17.70;;;6.43;;
69334;SDS011;56477;52.742;15.242;2024-01-15T01:43:02;18.40;;;7.50;;
69334;SDS011;56477;52.742;15.242;2024-01-15T01:45:29;20.20;;;11.30;;
69334;SDS011;56477;52.742;15.242;2024-01-15T01:47:55;18.85;;;8.05;;
69334;SDS011;56477;52.742;15.242;2024-01-15T01:50:21;19.00;;;6.30;;
69334;SDS011;56477;52.742;15.242;2024-01-15T01:52:47;29.00;;;12.87;;
69334;SDS011;56477;52.742;15.242;2024-01-15T01:55:14;19.90;;;8.02;;
69334;SDS011;56477;52.742;15.242;2024-01-15T01:57:40;24.02;;;10.18;;
69334;SDS011;56477;52.742;15.242;2024-01-15T02:00:07;20.02;;;8.27;;
69334;SDS011;56477;52.742;15.242;2024-01-15T02:02:33;21.58;;;9.77;;
69334;SDS011;56477;52.742;15.242;2024-01-15T02:05:00;27.33;;;11.93;;
69334;SDS011;56477;52.742;15.242;2024-01-15T02:07:26;20.20;;;8.32;;
69334;SDS011;56477;52.742;15.242;2024-01-15T02:09:53;24.60;;;10.55;;
69334;SDS011;56477;52.742;15.242;2024-01-15T02:12:19;28.95;;;12.57;;
69334;SDS011;56477;52.742;15.242;2024-01-15T02:14:45;23.57;;;10.20;;
69334;SDS011;56477;52.742;15.242;2024-01-15T02:17:11;21.02;;;8.45;;
69334;SDS011;56477;52.742;15.242;2024-01-15T02:19:37;17.95;;;6.80;;
69334;SDS011;56477;52.742;15.242;2024-01-15T02:22:04;22.00;;;10.43;;
69334;SDS011;56477;52.742;15.242;2024-01-15T02:24:31;22.90;;;10.33;;
69334;SDS011;56477;52.742;15.242;2024-01-15T02:26:57;12.88;;;6.63;;
69334;SDS011;56477;52.742;15.242;2024-01-15T02:29:23;21.48;;;8.45;;
69334;SDS011;56477;52.742;15.242;2024-01-15T02:31:49;19.70;;;10.02;;
69334;SDS011;56477;52.742;15.242;2024-01-15T02:34:15;18.48;;;6.32;;
69334;SDS011;56477;52.742;15.242;2024-01-15T02:36:41;17.60;;;8.20;;
69334;SDS011;56477;52.742;15.242;2024-01-15T02:39:07;14.13;;;4.97;;
69334;SDS011;56477;52.742;15.242;2024-01-15T02:41:33;15.57;;;4.90;;
69334;SDS011;56477;52.742;15.242;2024-01-15T02:43:59;16.55;;;7.50;;
69334;SDS011;56477;52.742;15.242;2024-01-15T02:46:25;11.93;;;4.67;;
69334;SDS011;56477;52.742;15.242;2024-01-15T02:48:52;21.23;;;10.98;;
69334;SDS011;56477;52.742;15.242;2024-01-15T02:51:17;16.23;;;7.53;;
69334;SDS011;56477;52.742;15.242;2024-01-15T02:53:44;18.83;;;9.48;;
69334;SDS011;56477;52.742;15.242;2024-01-15T02:56:10;17.98;;;9.20;;
69334;SDS011;56477;52.742;15.242;2024-01-15T02:58:36;17.13;;;8.20;;
69334;SDS011;56477;52.742;15.242;2024-01-15T03:01:02;17.85;;;8.23;;
69334;SDS011;56477;52.742;15.242;2024-01-15T03:03:28;13.15;;;5.05;;
69334;SDS011;56477;52.742;15.242;2024-01-15T03:05:54;15.07;;;5.10;;
69334;SDS011;56477;52.742;15.242;2024-01-15T03:08:20;12.88;;;3.58;;
69334;SDS011;56477;52.742;15.242;2024-01-15T03:10:48;10.30;;;3.42;;
69334;SDS011;56477;52.742;15.242;2024-01-15T03:13:14;10.52;;;4.88;;
69334;SDS011;56477;52.742;15.242;2024-01-15T03:15:40;12.83;;;3.10;;
69334;SDS011;56477;52.742;15.242;2024-01-15T03:18:06;9.30;;;4.60;;
69334;SDS011;56477;52.742;15.242;2024-01-15T03:20:32;8.00;;;2.92;;
69334;SDS011;56477;52.742;15.242;2024-01-15T03:22:58;13.98;;;5.13;;
69334;SDS011;56477;52.742;15.242;2024-01-15T03:25:24;15.00;;;7.10;;
69334;SDS011;56477;52.742;15.242;2024-01-15T03:27:50;9.30;;;3.63;;
69334;SDS011;56477;52.742;15.242;2024-01-15T03:30:16;11.27;;;4.55;;
69334;SDS011;56477;52.742;15.242;2024-01-15T03:32:42;7.38;;;2.75;;
69334;SDS011;56477;52.742;15.242;2024-01-15T03:35:08;14.07;;;6.17;;
69334;SDS011;56477;52.742;15.242;2024-01-15T03:37:34;9.45;;;3.53;;
69334;SDS011;56477;52.742;15.242;2024-01-15T03:40:01;12.13;;;6.13;;
69334;SDS011;56477;52.742;15.242;2024-01-15T03:42:28;11.88;;;5.75;;
69334;SDS011;56477;52.742;15.242;2024-01-15T03:44:54;11.00;;;3.53;;
69334;SDS011;56477;52.742;15.242;2024-01-15T03:47:20;10.33;;;3.50;;
69334;SDS011;56477;52.742;15.242;2024-01-15T03:49:46;9.38;;;2.55;;
69334;SDS011;56477;52.742;15.242;2024-01-15T03:52:12;9.48;;;2.80;;
69334;SDS011;56477;52.742;15.242;2024-01-15T03:54:37;12.27;;;5.07;;
69334;SDS011;56477;52.742;15.242;2024-01-15T03:57:04;14.75;;;6.00;;
69334;SDS011;56477;52.742;15.242;2024-01-15T03:59:30;11.30;;;3.90;;
69334;SDS011;56477;52.742;15.242;2024-01-15T04:01:56;14.73;;;5.47;;
69334;SDS011;56477;52.742;15.242;2024-01-15T04:04:22;9.07;;;3.30;;
69334;SDS011;56477;52.742;15.242;2024-01-15T04:06:48;13.52;;;5.53;;
69334;SDS011;56477;52.742;15.242;2024-01-15T04:09:14;12.20;;;4.25;;
69334;SDS011;56477;52.742;15.242;2024-01-15T04:11:40;8.70;;;2.97;;
69334;SDS011;56477;52.742;15.242;2024-01-15T04:14:06;22.05;;;10.05;;
69334;SDS011;56477;52.742;15.242;2024-01-15T04:16:32;15.60;;;4.93;;
69334;SDS011;56477;52.742;15.242;2024-01-15T04:18:58;12.27;;;5.03;;
69334;SDS011;56477;52.742;15.242;2024-01-15T04:21:25;14.93;;;5.77;;
69334;SDS011;56477;52.742;15.242;2024-01-15T04:23:50;10.32;;;3.60;;
69334;SDS011;56477;52.742;15.242;2024-01-15T04:26:16;14.75;;;4.47;;
69334;SDS011;56477;52.742;15.242;2024-01-15T04:28:42;7.50;;;2.80;;
69334;SDS011;56477;52.742;15.242;2024-01-15T04:31:09;13.57;;;5.95;;
69334;SDS011;56477;52.742;15.242;2024-01-15T04:33:34;17.55;;;8.40;;
69334;SDS011;56477;52.742;15.242;2024-01-15T04:36:01;19.60;;;7.72;;
69334;SDS011;56477;52.742;15.242;2024-01-15T04:38:28;16.63;;;7.30;;
69334;SDS011;56477;52.742;15.242;2024-01-15T04:40:55;15.32;;;5.75;;
69334;SDS011;56477;52.742;15.242;2024-01-15T04:43:20;15.38;;;5.82;;
69334;SDS011;56477;52.742;15.242;2024-01-15T04:45:47;21.95;;;8.20;;
69334;SDS011;56477;52.742;15.242;2024-01-15T04:48:12;20.80;;;9.23;;
69334;SDS011;56477;52.742;15.242;2024-01-15T04:50:38;9.20;;;3.47;;
69334;SDS011;56477;52.742;15.242;2024-01-15T04:53:04;15.80;;;5.68;;
69334;SDS011;56477;52.742;15.242;2024-01-15T04:55:31;22.95;;;8.70;;
69334;SDS011;56477;52.742;15.242;2024-01-15T04:57:56;11.60;;;3.70;;
69334;SDS011;56477;52.742;15.242;2024-01-15T05:00:23;21.60;;;8.77;;
69334;SDS011;56477;52.742;15.242;2024-01-15T05:02:49;19.27;;;8.32;;
69334;SDS011;56477;52.742;15.242;2024-01-15T05:05:15;10.40;;;3.17;;
69334;SDS011;56477;52.742;15.242;2024-01-15T05:07:41;11.50;;;4.50;;
69334;SDS011;56477;52.742;15.242;2024-01-15T05:10:07;13.18;;;5.03;;
69334;SDS011;56477;52.742;15.242;2024-01-15T05:12:33;14.82;;;5.30;;
69334;SDS011;56477;52.742;15.242;2024-01-15T05:14:59;15.52;;;5.88;;
69334;SDS011;56477;52.742;15.242;2024-01-15T05:17:25;18.77;;;8.60;;
69334;SDS011;56477;52.742;15.242;2024-01-15T05:19:51;19.45;;;7.80;;
69334;SDS011;56477;52.742;15.242;2024-01-15T05:22:17;12.48;;;4.53;;
69334;SDS011;56477;52.742;15.242;2024-01-15T05:24:43;14.67;;;6.43;;
69334;SDS011;56477;52.742;15.242;2024-01-15T05:27:09;17.83;;;8.95;;
69334;SDS011;56477;52.742;15.242;2024-01-15T05:29:35;20.63;;;8.63;;
69334;SDS011;56477;52.742;15.242;2024-01-15T05:32:01;14.20;;;4.97;;
69334;SDS011;56477;52.742;15.242;2024-01-15T05:34:27;14.37;;;5.93;;
69334;SDS011;56477;52.742;15.242;2024-01-15T05:36:53;18.23;;;7.00;;
69334;SDS011;56477;52.742;15.242;2024-01-15T05:39:19;15.45;;;6.45;;
69334;SDS011;56477;52.742;15.242;2024-01-15T05:41:45;13.70;;;6.40;;
69334;SDS011;56477;52.742;15.242;2024-01-15T05:44:11;12.03;;;4.83;;
69334;SDS011;56477;52.742;15.242;2024-01-15T05:46:37;9.23;;;3.20;;
69334;SDS011;56477;52.742;15.242;2024-01-15T05:49:03;15.48;;;5.40;;
69334;SDS011;56477;52.742;15.242;2024-01-15T05:51:29;17.50;;;7.87;;
69334;SDS011;56477;52.742;15.242;2024-01-15T05:53:56;12.75;;;4.15;;
69334;SDS011;56477;52.742;15.242;2024-01-15T05:56:22;14.95;;;5.60;;
69334;SDS011;56477;52.742;15.242;2024-01-15T05:58:49;12.82;;;5.80;;
69334;SDS011;56477;52.742;15.242;2024-01-15T06:01:15;13.67;;;5.83;;
69334;SDS011;56477;52.742;15.242;2024-01-15T06:03:41;9.52;;;4.50;;
69334;SDS011;56477;52.742;15.242;2024-01-15T06:06:08;12.63;;;5.30;;
69334;SDS011;56477;52.742;15.242;2024-01-15T06:08:34;16.05;;;5.60;;
69334;SDS011;56477;52.742;15.242;2024-01-15T06:11:00;12.97;;;5.03;;
69334;SDS011;56477;52.742;15.242;2024-01-15T06:13:26;17.95;;;6.75;;
69334;SDS011;56477;52.742;15.242;2024-01-15T06:15:52;11.27;;;4.18;;
69334;SDS011;56477;52.742;15.242;2024-01-15T06:18:18;16.03;;;6.77;;
69334;SDS011;56477;52.742;15.242;2024-01-15T06:20:44;14.38;;;5.40;;
69334;SDS011;56477;52.742;15.242;2024-01-15T06:23:10;15.52;;;5.90;;
69334;SDS011;56477;52.742;15.242;2024-01-15T06:25:37;13.18;;;4.38;;
69334;SDS011;56477;52.742;15.242;2024-01-15T06:28:03;12.85;;;5.75;;
69334;SDS011;56477;52.742;15.242;2024-01-15T06:30:30;11.47;;;3.27;;
69334;SDS011;56477;52.742;15.242;2024-01-15T06:32:57;14.85;;;5.22;;
69334;SDS011;56477;52.742;15.242;2024-01-15T06:35:23;10.10;;;3.50;;
69334;SDS011;56477;52.742;15.242;2024-01-15T06:37:49;14.68;;;6.22;;
69334;SDS011;56477;52.742;15.242;2024-01-15T06:40:15;11.97;;;4.73;;
69334;SDS011;56477;52.742;15.242;2024-01-15T06:42:41;15.30;;;5.45;;
69334;SDS011;56477;52.742;15.242;2024-01-15T06:45:07;7.93;;;2.20;;
69334;SDS011;56477;52.742;15.242;2024-01-15T06:47:33;15.60;;;3.97;;
69334;SDS011;56477;52.742;15.242;2024-01-15T06:49:59;13.57;;;4.40;;
69334;SDS011;56477;52.742;15.242;2024-01-15T06:52:25;12.27;;;4.47;;
69334;SDS011;56477;52.742;15.242;2024-01-15T06:54:51;15.23;;;6.43;;
69334;SDS011;56477;52.742;15.242;2024-01-15T06:57:17;13.52;;;5.50;;
69334;SDS011;56477;52.742;15.242;2024-01-15T06:59:45;14.20;;;6.03;;
69334;SDS011;56477;52.742;15.242;2024-01-15T07:02:11;18.13;;;4.03;;
69334;SDS011;56477;52.742;15.242;2024-01-15T07:04:37;13.95;;;5.03;;
69334;SDS011;56477;52.742;15.242;2024-01-15T07:07:04;8.17;;;3.03;;
69334;SDS011;56477;52.742;15.242;2024-01-15T07:09:30;13.73;;;4.57;;
69334;SDS011;56477;52.742;15.242;2024-01-15T07:11:56;16.17;;;5.38;;
69334;SDS011;56477;52.742;15.242;2024-01-15T07:14:23;15.45;;;5.00;;
69334;SDS011;56477;52.742;15.242;2024-01-15T07:16:49;21.13;;;8.02;;
69334;SDS011;56477;52.742;15.242;2024-01-15T07:19:15;11.33;;;4.33;;
69334;SDS011;56477;52.742;15.242;2024-01-15T07:21:41;8.82;;;3.08;;
69334;SDS011;56477;52.742;15.242;2024-01-15T07:24:08;13.10;;;4.68;;
69334;SDS011;56477;52.742;15.242;2024-01-15T07:26:36;12.45;;;4.40;;
69334;SDS011;56477;52.742;15.242;2024-01-15T07:29:02;12.00;;;4.50;;
69334;SDS011;56477;52.742;15.242;2024-01-15T07:31:29;8.95;;;3.45;;
69334;SDS011;56477;52.742;15.242;2024-01-15T07:33:55;8.77;;;3.28;;
69334;SDS011;56477;52.742;15.242;2024-01-15T07:36:21;11.40;;;4.32;;
69334;SDS011;56477;52.742;15.242;2024-01-15T07:38:47;9.57;;;3.67;;
69334;SDS011;56477;52.742;15.242;2024-01-15T07:41:13;14.73;;;4.80;;
69334;SDS011;56477;52.742;15.242;2024-01-15T07:43:39;13.13;;;4.28;;
69334;SDS011;56477;52.742;15.242;2024-01-15T07:46:05;11.30;;;4.03;;
69334;SDS011;56477;52.742;15.242;2024-01-15T07:48:32;13.07;;;5.00;;
69334;SDS011;56477;52.742;15.242;2024-01-15T07:50:58;9.27;;;3.17;;
69334;SDS011;56477;52.742;15.242;2024-01-15T07:53:24;11.30;;;4.13;;
69334;SDS011;56477;52.742;15.242;2024-01-15T07:55:50;10.07;;;4.18;;
69334;SDS011;56477;52.742;15.242;2024-01-15T07:58:16;10.30;;;4.57;;
69334;SDS011;56477;52.742;15.242;2024-01-15T08:00:42;9.93;;;4.90;;
69334;SDS011;56477;52.742;15.242;2024-01-15T08:03:08;11.43;;;3.10;;
69334;SDS011;56477;52.742;15.242;2024-01-15T08:05:35;5.85;;;1.83;;
69334;SDS011;56477;52.742;15.242;2024-01-15T08:08:01;8.27;;;2.35;;
69334;SDS011;56477;52.742;15.242;2024-01-15T08:10:27;9.05;;;2.67;;
69334;SDS011;56477;52.742;15.242;2024-01-15T08:12:54;8.17;;;2.30;;
69334;SDS011;56477;52.742;15.242;2024-01-15T08:15:20;4.95;;;1.23;;
69334;SDS011;56477;52.742;15.242;2024-01-15T08:17:46;3.42;;;1.17;;
69334;SDS011;56477;52.742;15.242;2024-01-15T08:20:12;7.07;;;1.90;;
69334;SDS011;56477;52.742;15.242;2024-01-15T08:22:38;6.27;;;1.40;;
69334;SDS011;56477;52.742;15.242;2024-01-15T08:25:05;5.20;;;0.95;;
69334;SDS011;56477;52.742;15.242;2024-01-15T08:27:31;7.05;;;1.45;;
69334;SDS011;56477;52.742;15.242;2024-01-15T08:29:57;5.82;;;0.85;;
69334;SDS011;56477;52.742;15.242;2024-01-15T08:32:23;8.00;;;1.60;;
69334;SDS011;56477;52.742;15.242;2024-01-15T08:34:49;5.83;;;1.40;;
69334;SDS011;56477;52.742;15.242;2024-01-15T08:37:17;3.13;;;1.02;;
69334;SDS011;56477;52.742;15.242;2024-01-15T08:39:44;6.15;;;1.20;;
69334;SDS011;56477;52.742;15.242;2024-01-15T08:42:10;6.03;;;1.60;;
69334;SDS011;56477;52.742;15.242;2024-01-15T08:44:37;6.53;;;1.13;;
69334;SDS011;56477;52.742;15.242;2024-01-15T08:47:04;2.47;;;0.40;;
69334;SDS011;56477;52.742;15.242;2024-01-15T08:49:31;4.38;;;0.88;;
69334;SDS011;56477;52.742;15.242;2024-01-15T08:51:57;4.68;;;0.60;;
69334;SDS011;56477;52.742;15.242;2024-01-15T08:54:23;5.18;;;1.05;;
69334;SDS011;56477;52.742;15.242;2024-01-15T08:56:49;3.87;;;0.63;;
69334;SDS011;56477;52.742;15.242;2024-01-15T08:59:15;5.45;;;1.27;;
69334;SDS011;56477;52.742;15.242;2024-01-15T09:01:41;8.02;;;1.42;;
69334;SDS011;56477;52.742;15.242;2024-01-15T09:04:07;7.63;;;1.80;;
69334;SDS011;56477;52.742;15.242;2024-01-15T09:06:34;5.63;;;1.40;;
69334;SDS011;56477;52.742;15.242;2024-01-15T09:09:00;8.53;;;1.60;;
69334;SDS011;56477;52.742;15.242;2024-01-15T09:11:26;4.55;;;1.13;;
69334;SDS011;56477;52.742;15.242;2024-01-15T09:13:52;7.40;;;1.70;;
69334;SDS011;56477;52.742;15.242;2024-01-15T09:16:18;6.53;;;1.55;;
69334;SDS011;56477;52.742;15.242;2024-01-15T09:18:44;7.30;;;1.47;;
69334;SDS011;56477;52.742;15.242;2024-01-15T09:21:12;5.97;;;1.50;;
69334;SDS011;56477;52.742;15.242;2024-01-15T09:23:38;4.18;;;1.10;;
69334;SDS011;56477;52.742;15.242;2024-01-15T09:26:04;2.88;;;0.82;;
69334;SDS011;56477;52.742;15.242;2024-01-15T09:28:30;6.13;;;1.30;;
69334;SDS011;56477;52.742;15.242;2024-01-15T09:30:56;4.07;;;0.90;;
69334;SDS011;56477;52.742;15.242;2024-01-15T09:33:22;7.60;;;1.63;;
69334;SDS011;56477;52.742;15.242;2024-01-15T09:35:48;11.27;;;2.15;;
69334;SDS011;56477;52.742;15.242;2024-01-15T09:38:14;6.07;;;1.27;;
69334;SDS011;56477;52.742;15.242;2024-01-15T09:40:41;9.07;;;1.90;;
69334;SDS011;56477;52.742;15.242;2024-01-15T09:43:10;7.30;;;1.70;;
69334;SDS011;56477;52.742;15.242;2024-01-15T09:45:37;5.95;;;1.17;;
69334;SDS011;56477;52.742;15.242;2024-01-15T09:48:04;7.07;;;1.60;;
69334;SDS011;56477;52.742;15.242;2024-01-15T09:50:30;7.93;;;1.73;;
69334;SDS011;56477;52.742;15.242;2024-01-15T09:52:56;10.75;;;1.85;;
69334;SDS011;56477;52.742;15.242;2024-01-15T09:55:23;4.82;;;0.70;;
69334;SDS011;56477;52.742;15.242;2024-01-15T09:57:49;8.07;;;1.50;;
69334;SDS011;56477;52.742;15.242;2024-01-15T10:00:17;9.27;;;1.95;;
69334;SDS011;56477;52.742;15.242;2024-01-15T10:02:44;5.37;;;1.07;;
69334;SDS011;56477;52.742;15.242;2024-01-15T10:05:10;6.15;;;1.65;;
69334;SDS011;56477;52.742;15.242;2024-01-15T10:07:37;7.35;;;1.80;;
69334;SDS011;56477;52.742;15.242;2024-01-15T10:10:04;6.82;;;0.70;;
69334;SDS011;56477;52.742;15.242;2024-01-15T10:12:30;4.78;;;1.08;;
69334;SDS011;56477;52.742;15.242;2024-01-15T10:14:56;11.57;;;1.70;;
69334;SDS011;56477;52.742;15.242;2024-01-15T10:17:23;15.25;;;1.60;;
69334;SDS011;56477;52.742;15.242;2024-01-15T10:19:50;10.77;;;1.42;;
69334;SDS011;56477;52.742;15.242;2024-01-15T10:22:17;10.73;;;1.60;;
69334;SDS011;56477;52.742;15.242;2024-01-15T10:24:46;9.30;;;1.75;;
69334;SDS011;56477;52.742;15.242;2024-01-15T10:27:12;6.03;;;1.27;;
69334;SDS011;56477;52.742;15.242;2024-01-15T10:29:38;5.10;;;0.88;;
69334;SDS011;56477;52.742;15.242;2024-01-15T10:32:08;3.92;;;0.75;;
69334;SDS011;56477;52.742;15.242;2024-01-15T10:34:37;13.07;;;1.95;;
69334;SDS011;56477;52.742;15.242;2024-01-15T10:37:07;8.23;;;1.50;;
69334;SDS011;56477;52.742;15.242;2024-01-15T10:39:33;9.98;;;1.27;;
69334;SDS011;56477;52.742;15.242;2024-01-15T10:42:00;6.85;;;1.67;;
69334;SDS011;56477;52.742;15.242;2024-01-15T10:44:26;4.32;;;0.57;;
69334;SDS011;56477;52.742;15.242;2024-01-15T10:46:52;3.90;;;0.57;;
69334;SDS011;56477;52.742;15.242;2024-01-15T10:49:19;5.33;;;1.10;;
69334;SDS011;56477;52.742;15.242;2024-01-15T10:51:46;7.20;;;1.10;;
69334;SDS011;56477;52.742;15.242;2024-01-15T10:54:13;9.70;;;1.20;;
69334;SDS011;56477;52.742;15.242;2024-01-15T10:56:40;6.03;;;0.80;;
69334;SDS011;56477;52.742;15.242;2024-01-15T10:59:07;6.57;;;0.60;;
69334;SDS011;56477;52.742;15.242;2024-01-15T11:01:36;4.10;;;0.70;;
69334;SDS011;56477;52.742;15.242;2024-01-15T11:04:05;3.80;;;0.82;;
69334;SDS011;56477;52.742;15.242;2024-01-15T11:06:40;5.65;;;0.68;;
69334;SDS011;56477;52.742;15.242;2024-01-15T11:09:07;4.63;;;1.27;;
69334;SDS011;56477;52.742;15.242;2024-01-15T11:11:41;3.30;;;0.22;;
69334;SDS011;56477;52.742;15.242;2024-01-15T11:14:09;1.47;;;0.20;;
69334;SDS011;56477;52.742;15.242;2024-01-15T11:19:46;1.83;;;0.20;;
69334;SDS011;56477;52.742;15.242;2024-01-15T11:25:04;2.92;;;0.50;;
69334;SDS011;56477;52.742;15.242;2024-01-15T11:27:40;0.90;;;0.17;;
69334;SDS011;56477;52.742;15.242;2024-01-15T11:30:11;2.55;;;0.20;;
69334;SDS011;56477;52.742;15.242;2024-01-15T11:32:38;2.13;;;0.30;;
69334;SDS011;56477;52.742;15.242;2024-01-15T11:35:08;4.50;;;0.80;;
69334;SDS011;56477;52.742;15.242;2024-01-15T11:40:19;4.23;;;0.50;;
69334;SDS011;56477;52.742;15.242;2024-01-15T11:42:47;5.43;;;0.52;;
69334;SDS011;56477;52.742;15.242;2024-01-15T11:45:18;4.15;;;0.98;;
69334;SDS011;56477;52.742;15.242;2024-01-15T11:50:44;6.68;;;1.90;;
69334;SDS011;56477;52.742;15.242;2024-01-15T11:53:26;4.73;;;1.50;;
69334;SDS011;56477;52.742;15.242;2024-01-15T11:55:59;3.58;;;0.90;;
69334;SDS011;56477;52.742;15.242;2024-01-15T11:58:28;2.92;;;1.15;;
69334;SDS011;56477;52.742;15.242;2024-01-15T12:00:54;3.33;;;0.80;;
69334;SDS011;56477;52.742;15.242;2024-01-15T12:03:24;2.47;;;0.47;;
69334;SDS011;56477;52.742;15.242;2024-01-15T12:05:53;3.80;;;1.00;;
69334;SDS011;56477;52.742;15.242;2024-01-15T12:08:23;4.75;;;0.98;;
69334;SDS011;56477;52.742;15.242;2024-01-15T12:10:50;4.07;;;0.70;;
69334;SDS011;56477;52.742;15.242;2024-01-15T12:13:17;5.13;;;0.57;;
69334;SDS011;56477;52.742;15.242;2024-01-15T12:15:43;3.78;;;0.55;;
69334;SDS011;56477;52.742;15.242;2024-01-15T12:18:14;3.60;;;0.67;;
69334;SDS011;56477;52.742;15.242;2024-01-15T12:20:41;2.28;;;0.35;;
69334;SDS011;56477;52.742;15.242;2024-01-15T12:23:08;3.25;;;0.43;;
69334;SDS011;56477;52.742;15.242;2024-01-15T12:25:35;4.45;;;0.90;;
69334;SDS011;56477;52.742;15.242;2024-01-15T12:28:03;3.67;;;0.93;;
69334;SDS011;56477;52.742;15.242;2024-01-15T12:30:30;3.50;;;0.40;;
69334;SDS011;56477;52.742;15.242;2024-01-15T12:33:03;2.80;;;1.05;;
69334;SDS011;56477;52.742;15.242;2024-01-15T12:35:29;2.65;;;0.63;;
69334;SDS011;56477;52.742;15.242;2024-01-15T12:37:56;5.18;;;1.00;;
69334;SDS011;56477;52.742;15.242;2024-01-15T12:40:22;5.37;;;0.87;;
69334;SDS011;56477;52.742;15.242;2024-01-15T12:42:49;7.72;;;1.50;;
69334;SDS011;56477;52.742;15.242;2024-01-15T12:45:15;6.18;;;1.00;;
69334;SDS011;56477;52.742;15.242;2024-01-15T12:47:42;4.90;;;0.68;;
69334;SDS011;56477;52.742;15.242;2024-01-15T12:50:11;3.10;;;0.40;;
69334;SDS011;56477;52.742;15.242;2024-01-15T12:52:41;7.40;;;0.80;;
69334;SDS011;56477;52.742;15.242;2024-01-15T12:55:08;2.95;;;0.40;;
69334;SDS011;56477;52.742;15.242;2024-01-15T12:57:35;8.93;;;0.80;;
69334;SDS011;56477;52.742;15.242;2024-01-15T13:00:04;4.20;;;0.75;;
69334;SDS011;56477;52.742;15.242;2024-01-15T13:02:38;5.78;;;0.73;;
69334;SDS011;56477;52.742;15.242;2024-01-15T13:05:11;2.17;;;0.40;;
69334;SDS011;56477;52.742;15.242;2024-01-15T13:07:38;1.60;;;0.30;;
69334;SDS011;56477;52.742;15.242;2024-01-15T13:10:04;1.60;;;0.22;;
69334;SDS011;56477;52.742;15.242;2024-01-15T13:12:31;4.35;;;0.30;;
69334;SDS011;56477;52.742;15.242;2024-01-15T13:14:58;1.08;;;0.10;;
69334;SDS011;56477;52.742;15.242;2024-01-15T13:17:25;3.63;;;0.20;;
69334;SDS011;56477;52.742;15.242;2024-01-15T13:19:54;1.70;;;0.20;;
69334;SDS011;56477;52.742;15.242;2024-01-15T13:22:20;2.33;;;0.38;;
69334;SDS011;56477;52.742;15.242;2024-01-15T13:24:46;2.70;;;0.25;;
69334;SDS011;56477;52.742;15.242;2024-01-15T13:27:12;1.73;;;0.10;;
69334;SDS011;56477;52.742;15.242;2024-01-15T13:29:38;3.70;;;0.30;;
69334;SDS011;56477;52.742;15.242;2024-01-15T13:32:07;2.13;;;0.65;;
69334;SDS011;56477;52.742;15.242;2024-01-15T13:34:33;2.90;;;0.45;;
69334;SDS011;56477;52.742;15.242;2024-01-15T13:36:59;2.03;;;0.30;;
69334;SDS011;56477;52.742;15.242;2024-01-15T13:39:25;1.73;;;0.30;;
69334;SDS011;56477;52.742;15.242;2024-01-15T13:41:51;3.42;;;0.25;;
69334;SDS011;56477;52.742;15.242;2024-01-15T13:44:18;3.22;;;0.63;;
69334;SDS011;56477;52.742;15.242;2024-01-15T13:46:44;5.45;;;0.70;;
69334;SDS011;56477;52.742;15.242;2024-01-15T13:49:10;2.30;;;0.30;;
69334;SDS011;56477;52.742;15.242;2024-01-15T13:51:36;4.57;;;0.45;;
69334;SDS011;56477;52.742;15.242;2024-01-15T13:54:02;4.72;;;0.40;;
69334;SDS011;56477;52.742;15.242;2024-01-15T13:56:30;2.13;;;0.50;;
69334;SDS011;56477;52.742;15.242;2024-01-15T13:58:58;3.77;;;0.33;;
69334;SDS011;56477;52.742;15.242;2024-01-15T14:01:25;3.63;;;0.22;;
69334;SDS011;56477;52.742;15.242;2024-01-15T14:03:54;4.50;;;0.80;;
69334;SDS011;56477;52.742;15.242;2024-01-15T14:06:20;2.85;;;0.45;;
69334;SDS011;56477;52.742;15.242;2024-01-15T14:08:46;4.18;;;0.60;;
69334;SDS011;56477;52.742;15.242;2024-01-15T14:11:12;5.43;;;0.67;;
69334;SDS011;56477;52.742;15.242;2024-01-15T14:13:38;1.65;;;0.30;;
69334;SDS011;56477;52.742;15.242;2024-01-15T14:16:04;6.53;;;0.70;;
69334;SDS011;56477;52.742;15.242;2024-01-15T14:18:30;7.65;;;0.90;;
69334;SDS011;56477;52.742;15.242;2024-01-15T14:20:57;6.88;;;0.77;;
69334;SDS011;56477;52.742;15.242;2024-01-15T14:23:23;2.63;;;0.50;;
69334;SDS011;56477;52.742;15.242;2024-01-15T14:25:49;2.67;;;0.40;;
69334;SDS011;56477;52.742;15.242;2024-01-15T14:28:15;4.00;;;0.45;;
69334;SDS011;56477;52.742;15.242;2024-01-15T14:30:41;4.47;;;0.50;;
69334;SDS011;56477;52.742;15.242;2024-01-15T14:33:07;2.90;;;0.30;;